<?xml version="1.0" encoding="UTF-8" standalone="no" ?>
<gpx xmlns="http://www.topografix.com/GPX/1/1" xmlns:xsi="http://www.w3.org/2001/XMLSchema-instance" xsi:schemaLocation="http://www.topografix.com/GPX/1/1 http://www.topografix.com/GPX/1/1/gpx.xsd" version="1.1" creator="VisuGPX - https://www.visugpx.com">
  <metadata>
    <name>AVF - Sortie à Montferrat le 21-05-2013</name>
    <desc><![CDATA[Montferrat - Notre Dame de Beauvoir]]></desc>
  </metadata>
  <wpt lat="43.61064" lon="6.4824">
    <ele>477.84</ele>
    <name><![CDATA[0000164]]></name>
    <desc><![CDATA[]]></desc>
    <type><![CDATA[Point de départ]]></type>
  </wpt>
  <wpt lat="43.61062" lon="6.48233">
    <ele>469.23</ele>
    <name><![CDATA[0000165]]></name>
    <desc><![CDATA[<br /><h3>Nom: Segment 1</h3><br /><p>Temps de départ: 05/21/2013 10:12</p><p>Temps d'arrivée: 05/21/2013 14:30</p><p>Distance: 3,8 km (04:17)</p><p>Temps déplacement: 01:59</p><p>Vitesse moyenne: 0,9 km/h</p><p>Vitesse moyenne: 1,9 km/h</p><p>Vitess Max.: 10,9 km/h</p><p>Altitude minimale: 466 m</p><p>Altitude maximale: 683 m</p><p>Vitesse d'élévation: 216,2 m/h</p><p>Vitesse de descente: -142,4 m/h</p><p>Gain Altitude: 202 m</p><p>Perte Altitude: -172 m</p><p>Temps d'élévation: 00:56</p><p>Temps de descente: 01:12</p>]]></desc>
    <type><![CDATA[Point d'arrivée]]></type>
  </wpt>
  <trk>
    <name><![CDATA[montferra ]]></name>
    <desc><![CDATA[<h1>OruxMaps</h1><br /><hr align="center" width="480" style="height: 2px; width: 517px"/><h2>Nom: montferra </h2><br /><p>Temps de départ: 05/21/2013 10:12</p><p>Temps d'arrivée: 05/21/2013 14:30</p><p>Distance: 3,8 km (04:17)</p><p>Temps déplacement: 01:59</p><p>Vitesse moyenne: 0,9 km/h</p><p>Vitesse moyenne: 1,9 km/h</p><p>Vitess Max.: 10,9 km/h</p><p>Altitude minimale: 466 m</p><p>Altitude maximale: 683 m</p><p>Vitesse d'élévation: 216,2 m/h</p><p>Vitesse de descente: -142,4 m/h</p><p>Gain Altitude: 202 m</p><p>Perte Altitude: -172 m</p><p>Temps d'élévation: 00:56</p><p>Temps de descente: 01:12</p><hr align="center" width="480" style="height: 2px; width: 517px"/>]]></desc>
    <trkseg>
      <trkpt lat="43.61064" lon="6.4824">
        <ele>477.84</ele>
        <time>2013-05-21T08:12:48Z</time>
      </trkpt>
      <trkpt lat="43.61068" lon="6.48228">
        <ele>469.25</ele>
        <time>2013-05-21T08:13:07Z</time>
      </trkpt>
      <trkpt lat="43.61076" lon="6.48221">
        <ele>467.97</ele>
        <time>2013-05-21T08:13:18Z</time>
      </trkpt>
      <trkpt lat="43.61085" lon="6.48214">
        <ele>467.5</ele>
        <time>2013-05-21T08:13:31Z</time>
      </trkpt>
      <trkpt lat="43.61096" lon="6.48205">
        <ele>467.75</ele>
        <time>2013-05-21T08:13:39Z</time>
      </trkpt>
      <trkpt lat="43.61105" lon="6.482">
        <ele>467.99</ele>
        <time>2013-05-21T08:13:44Z</time>
      </trkpt>
      <trkpt lat="43.61116" lon="6.48193">
        <ele>468.94</ele>
        <time>2013-05-21T08:13:56Z</time>
      </trkpt>
      <trkpt lat="43.61107" lon="6.48183">
        <ele>469.67</ele>
        <time>2013-05-21T08:14:23Z</time>
      </trkpt>
      <trkpt lat="43.6112" lon="6.4818">
        <ele>469.27</ele>
        <time>2013-05-21T08:14:34Z</time>
      </trkpt>
      <trkpt lat="43.61129" lon="6.48174">
        <ele>466.88</ele>
        <time>2013-05-21T08:14:58Z</time>
      </trkpt>
      <trkpt lat="43.61147" lon="6.48176">
        <ele>466.63</ele>
        <time>2013-05-21T08:15:07Z</time>
      </trkpt>
      <trkpt lat="43.61158" lon="6.48176">
        <ele>467.19</ele>
        <time>2013-05-21T08:15:14Z</time>
      </trkpt>
      <trkpt lat="43.61167" lon="6.48168">
        <ele>467.94</ele>
        <time>2013-05-21T08:15:20Z</time>
      </trkpt>
      <trkpt lat="43.61176" lon="6.48165">
        <ele>469.07</ele>
        <time>2013-05-21T08:15:30Z</time>
      </trkpt>
      <trkpt lat="43.61184" lon="6.4816">
        <ele>470.95</ele>
        <time>2013-05-21T08:15:42Z</time>
      </trkpt>
      <trkpt lat="43.61193" lon="6.48153">
        <ele>472.29</ele>
        <time>2013-05-21T08:15:48Z</time>
      </trkpt>
      <trkpt lat="43.61201" lon="6.48143">
        <ele>475.69</ele>
        <time>2013-05-21T08:16:01Z</time>
      </trkpt>
      <trkpt lat="43.61209" lon="6.48135">
        <ele>477.96</ele>
        <time>2013-05-21T08:16:25Z</time>
      </trkpt>
      <trkpt lat="43.6122" lon="6.48131">
        <ele>478.11</ele>
        <time>2013-05-21T08:16:49Z</time>
      </trkpt>
      <trkpt lat="43.61228" lon="6.48123">
        <ele>477.95</ele>
        <time>2013-05-21T08:17:06Z</time>
      </trkpt>
      <trkpt lat="43.61224" lon="6.48111">
        <ele>478.53</ele>
        <time>2013-05-21T08:17:16Z</time>
      </trkpt>
      <trkpt lat="43.61235" lon="6.4812">
        <ele>479.23</ele>
        <time>2013-05-21T08:17:24Z</time>
      </trkpt>
      <trkpt lat="43.61244" lon="6.48121">
        <ele>479.51</ele>
        <time>2013-05-21T08:17:36Z</time>
      </trkpt>
      <trkpt lat="43.61257" lon="6.48119">
        <ele>480.16</ele>
        <time>2013-05-21T08:18:00Z</time>
      </trkpt>
      <trkpt lat="43.61266" lon="6.4811">
        <ele>482.96</ele>
        <time>2013-05-21T08:18:08Z</time>
      </trkpt>
      <trkpt lat="43.61278" lon="6.48109">
        <ele>489.29</ele>
        <time>2013-05-21T08:18:17Z</time>
      </trkpt>
      <trkpt lat="43.61263" lon="6.48186">
        <ele>491.97</ele>
        <time>2013-05-21T08:18:58Z</time>
      </trkpt>
      <trkpt lat="43.61277" lon="6.48186">
        <ele>492.36</ele>
        <time>2013-05-21T08:19:01Z</time>
      </trkpt>
      <trkpt lat="43.61276" lon="6.48199">
        <ele>493.78</ele>
        <time>2013-05-21T08:19:11Z</time>
      </trkpt>
      <trkpt lat="43.61274" lon="6.48211">
        <ele>495.59</ele>
        <time>2013-05-21T08:19:25Z</time>
      </trkpt>
      <trkpt lat="43.61269" lon="6.48222">
        <ele>497.1</ele>
        <time>2013-05-21T08:19:40Z</time>
      </trkpt>
      <trkpt lat="43.61265" lon="6.48233">
        <ele>497.85</ele>
        <time>2013-05-21T08:19:55Z</time>
      </trkpt>
      <trkpt lat="43.61261" lon="6.48246">
        <ele>497.63</ele>
        <time>2013-05-21T08:20:25Z</time>
      </trkpt>
      <trkpt lat="43.61268" lon="6.48255">
        <ele>497.85</ele>
        <time>2013-05-21T08:20:36Z</time>
      </trkpt>
      <trkpt lat="43.61269" lon="6.48243">
        <ele>498.69</ele>
        <time>2013-05-21T08:21:08Z</time>
      </trkpt>
      <trkpt lat="43.61262" lon="6.48253">
        <ele>498.71</ele>
        <time>2013-05-21T08:22:58Z</time>
      </trkpt>
      <trkpt lat="43.61266" lon="6.48265">
        <ele>498.37</ele>
        <time>2013-05-21T08:23:09Z</time>
      </trkpt>
      <trkpt lat="43.61266" lon="6.48281">
        <ele>497.78</ele>
        <time>2013-05-21T08:23:20Z</time>
      </trkpt>
      <trkpt lat="43.61271" lon="6.48292">
        <ele>496.71</ele>
        <time>2013-05-21T08:23:31Z</time>
      </trkpt>
      <trkpt lat="43.61279" lon="6.48298">
        <ele>496.53</ele>
        <time>2013-05-21T08:23:44Z</time>
      </trkpt>
      <trkpt lat="43.61288" lon="6.48302">
        <ele>496.95</ele>
        <time>2013-05-21T08:23:55Z</time>
      </trkpt>
      <trkpt lat="43.61296" lon="6.48308">
        <ele>497.83</ele>
        <time>2013-05-21T08:24:08Z</time>
      </trkpt>
      <trkpt lat="43.61305" lon="6.48313">
        <ele>497.98</ele>
        <time>2013-05-21T08:24:19Z</time>
      </trkpt>
      <trkpt lat="43.61313" lon="6.4832">
        <ele>497.83</ele>
        <time>2013-05-21T08:24:33Z</time>
      </trkpt>
      <trkpt lat="43.61323" lon="6.48321">
        <ele>498.28</ele>
        <time>2013-05-21T08:24:51Z</time>
      </trkpt>
      <trkpt lat="43.61331" lon="6.48326">
        <ele>499.19</ele>
        <time>2013-05-21T08:25:12Z</time>
      </trkpt>
      <trkpt lat="43.6134" lon="6.48332">
        <ele>501.37</ele>
        <time>2013-05-21T08:25:30Z</time>
      </trkpt>
      <trkpt lat="43.61338" lon="6.48344">
        <ele>500.4</ele>
        <time>2013-05-21T08:25:51Z</time>
      </trkpt>
      <trkpt lat="43.61345" lon="6.48336">
        <ele>501.37</ele>
        <time>2013-05-21T08:26:02Z</time>
      </trkpt>
      <trkpt lat="43.61355" lon="6.48335">
        <ele>505.94</ele>
        <time>2013-05-21T08:26:27Z</time>
      </trkpt>
      <trkpt lat="43.61365" lon="6.48334">
        <ele>508.17</ele>
        <time>2013-05-21T08:26:47Z</time>
      </trkpt>
      <trkpt lat="43.61375" lon="6.48336">
        <ele>512.57</ele>
        <time>2013-05-21T08:27:28Z</time>
      </trkpt>
      <trkpt lat="43.61385" lon="6.48332">
        <ele>516.4</ele>
        <time>2013-05-21T08:27:47Z</time>
      </trkpt>
      <trkpt lat="43.61393" lon="6.48334">
        <ele>520.04</ele>
        <time>2013-05-21T08:28:09Z</time>
      </trkpt>
      <trkpt lat="43.61402" lon="6.48328">
        <ele>523.27</ele>
        <time>2013-05-21T08:28:29Z</time>
      </trkpt>
      <trkpt lat="43.61411" lon="6.48326">
        <ele>526.43</ele>
        <time>2013-05-21T08:28:40Z</time>
      </trkpt>
      <trkpt lat="43.61416" lon="6.48314">
        <ele>529.33</ele>
        <time>2013-05-21T08:29:18Z</time>
      </trkpt>
      <trkpt lat="43.61425" lon="6.48319">
        <ele>535.09</ele>
        <time>2013-05-21T08:29:59Z</time>
      </trkpt>
      <trkpt lat="43.61434" lon="6.48316">
        <ele>535.8</ele>
        <time>2013-05-21T08:30:14Z</time>
      </trkpt>
      <trkpt lat="43.61441" lon="6.48307">
        <ele>536.47</ele>
        <time>2013-05-21T08:30:24Z</time>
      </trkpt>
      <trkpt lat="43.61452" lon="6.48312">
        <ele>536.79</ele>
        <time>2013-05-21T08:30:40Z</time>
      </trkpt>
      <trkpt lat="43.61461" lon="6.48313">
        <ele>536.48</ele>
        <time>2013-05-21T08:30:55Z</time>
      </trkpt>
      <trkpt lat="43.61472" lon="6.48311">
        <ele>536.4</ele>
        <time>2013-05-21T08:31:12Z</time>
      </trkpt>
      <trkpt lat="43.61481" lon="6.48313">
        <ele>536.02</ele>
        <time>2013-05-21T08:31:23Z</time>
      </trkpt>
      <trkpt lat="43.6149" lon="6.48317">
        <ele>535.59</ele>
        <time>2013-05-21T08:31:32Z</time>
      </trkpt>
      <trkpt lat="43.61499" lon="6.48316">
        <ele>535.64</ele>
        <time>2013-05-21T08:31:46Z</time>
      </trkpt>
      <trkpt lat="43.61508" lon="6.48316">
        <ele>535.78</ele>
        <time>2013-05-21T08:32:00Z</time>
      </trkpt>
      <trkpt lat="43.61517" lon="6.48311">
        <ele>536.17</ele>
        <time>2013-05-21T08:32:23Z</time>
      </trkpt>
      <trkpt lat="43.61527" lon="6.48313">
        <ele>537.76</ele>
        <time>2013-05-21T08:33:01Z</time>
      </trkpt>
      <trkpt lat="43.61536" lon="6.48314">
        <ele>542.44</ele>
        <time>2013-05-21T08:33:19Z</time>
      </trkpt>
      <trkpt lat="43.61545" lon="6.48316">
        <ele>545.34</ele>
        <time>2013-05-21T08:33:39Z</time>
      </trkpt>
      <trkpt lat="43.61555" lon="6.48316">
        <ele>546.37</ele>
        <time>2013-05-21T08:34:00Z</time>
      </trkpt>
      <trkpt lat="43.61565" lon="6.48316">
        <ele>549.2</ele>
        <time>2013-05-21T08:34:42Z</time>
      </trkpt>
      <trkpt lat="43.6157" lon="6.48328">
        <ele>555.98</ele>
        <time>2013-05-21T08:38:09Z</time>
      </trkpt>
      <trkpt lat="43.61573" lon="6.48341">
        <ele>557.57</ele>
        <time>2013-05-21T08:38:27Z</time>
      </trkpt>
      <trkpt lat="43.61582" lon="6.48345">
        <ele>559.75</ele>
        <time>2013-05-21T08:38:46Z</time>
      </trkpt>
      <trkpt lat="43.61589" lon="6.48336">
        <ele>561.66</ele>
        <time>2013-05-21T08:39:16Z</time>
      </trkpt>
      <trkpt lat="43.61598" lon="6.48336">
        <ele>563.65</ele>
        <time>2013-05-21T08:39:42Z</time>
      </trkpt>
      <trkpt lat="43.61601" lon="6.48347">
        <ele>566.64</ele>
        <time>2013-05-21T08:40:23Z</time>
      </trkpt>
      <trkpt lat="43.61595" lon="6.48357">
        <ele>567.89</ele>
        <time>2013-05-21T08:41:04Z</time>
      </trkpt>
      <trkpt lat="43.61601" lon="6.48346">
        <ele>570.2</ele>
        <time>2013-05-21T08:41:57Z</time>
      </trkpt>
      <trkpt lat="43.61611" lon="6.48342">
        <ele>570.19</ele>
        <time>2013-05-21T08:42:15Z</time>
      </trkpt>
      <trkpt lat="43.6162" lon="6.48338">
        <ele>570.77</ele>
        <time>2013-05-21T08:42:50Z</time>
      </trkpt>
      <trkpt lat="43.6163" lon="6.4834">
        <ele>572.27</ele>
        <time>2013-05-21T08:43:08Z</time>
      </trkpt>
      <trkpt lat="43.61638" lon="6.48347">
        <ele>574.52</ele>
        <time>2013-05-21T08:43:29Z</time>
      </trkpt>
      <trkpt lat="43.61647" lon="6.48353">
        <ele>576.06</ele>
        <time>2013-05-21T08:43:44Z</time>
      </trkpt>
      <trkpt lat="43.61656" lon="6.48358">
        <ele>579.06</ele>
        <time>2013-05-21T08:44:08Z</time>
      </trkpt>
      <trkpt lat="43.61665" lon="6.48362">
        <ele>580.36</ele>
        <time>2013-05-21T08:44:26Z</time>
      </trkpt>
      <trkpt lat="43.61674" lon="6.48362">
        <ele>581.69</ele>
        <time>2013-05-21T08:44:41Z</time>
      </trkpt>
      <trkpt lat="43.61684" lon="6.48361">
        <ele>584.22</ele>
        <time>2013-05-21T08:45:05Z</time>
      </trkpt>
      <trkpt lat="43.61692" lon="6.48367">
        <ele>585.25</ele>
        <time>2013-05-21T08:45:56Z</time>
      </trkpt>
      <trkpt lat="43.61683" lon="6.48361">
        <ele>585.23</ele>
        <time>2013-05-21T08:46:26Z</time>
      </trkpt>
      <trkpt lat="43.61691" lon="6.4837">
        <ele>589.8</ele>
        <time>2013-05-21T08:47:02Z</time>
      </trkpt>
      <trkpt lat="43.61693" lon="6.48357">
        <ele>593.01</ele>
        <time>2013-05-21T08:47:32Z</time>
      </trkpt>
      <trkpt lat="43.617" lon="6.48367">
        <ele>597.51</ele>
        <time>2013-05-21T08:48:47Z</time>
      </trkpt>
      <trkpt lat="43.61708" lon="6.48358">
        <ele>598.16</ele>
        <time>2013-05-21T08:49:02Z</time>
      </trkpt>
      <trkpt lat="43.617" lon="6.48365">
        <ele>598.74</ele>
        <time>2013-05-21T08:49:23Z</time>
      </trkpt>
      <trkpt lat="43.61694" lon="6.48377">
        <ele>602.92</ele>
        <time>2013-05-21T08:50:35Z</time>
      </trkpt>
      <trkpt lat="43.61703" lon="6.4838">
        <ele>601.93</ele>
        <time>2013-05-21T08:51:14Z</time>
      </trkpt>
      <trkpt lat="43.61713" lon="6.48377">
        <ele>601.89</ele>
        <time>2013-05-21T08:51:29Z</time>
      </trkpt>
      <trkpt lat="43.61722" lon="6.48382">
        <ele>602.62</ele>
        <time>2013-05-21T08:51:47Z</time>
      </trkpt>
      <trkpt lat="43.6173" lon="6.48385">
        <ele>603.25</ele>
        <time>2013-05-21T08:52:02Z</time>
      </trkpt>
      <trkpt lat="43.6174" lon="6.48389">
        <ele>605.1</ele>
        <time>2013-05-21T08:52:23Z</time>
      </trkpt>
      <trkpt lat="43.61745" lon="6.48401">
        <ele>614.09</ele>
        <time>2013-05-21T08:55:41Z</time>
      </trkpt>
      <trkpt lat="43.61754" lon="6.48398">
        <ele>614.64</ele>
        <time>2013-05-21T08:55:53Z</time>
      </trkpt>
      <trkpt lat="43.61766" lon="6.48394">
        <ele>615.45</ele>
        <time>2013-05-21T08:56:11Z</time>
      </trkpt>
      <trkpt lat="43.61773" lon="6.48387">
        <ele>617.16</ele>
        <time>2013-05-21T08:56:23Z</time>
      </trkpt>
      <trkpt lat="43.61781" lon="6.48395">
        <ele>621.06</ele>
        <time>2013-05-21T08:56:50Z</time>
      </trkpt>
      <trkpt lat="43.61788" lon="6.48407">
        <ele>623.87</ele>
        <time>2013-05-21T08:57:05Z</time>
      </trkpt>
      <trkpt lat="43.61795" lon="6.48394">
        <ele>627.67</ele>
        <time>2013-05-21T08:57:50Z</time>
      </trkpt>
      <trkpt lat="43.61803" lon="6.48401">
        <ele>630.09</ele>
        <time>2013-05-21T08:58:32Z</time>
      </trkpt>
      <trkpt lat="43.61801" lon="6.48413">
        <ele>631.33</ele>
        <time>2013-05-21T08:58:50Z</time>
      </trkpt>
      <trkpt lat="43.61805" lon="6.48426">
        <ele>632.12</ele>
        <time>2013-05-21T08:59:08Z</time>
      </trkpt>
      <trkpt lat="43.61812" lon="6.48434">
        <ele>632.45</ele>
        <time>2013-05-21T08:59:29Z</time>
      </trkpt>
      <trkpt lat="43.61817" lon="6.48445">
        <ele>633.1</ele>
        <time>2013-05-21T08:59:47Z</time>
      </trkpt>
      <trkpt lat="43.61818" lon="6.48458">
        <ele>634.02</ele>
        <time>2013-05-21T09:00:02Z</time>
      </trkpt>
      <trkpt lat="43.61824" lon="6.4847">
        <ele>636.33</ele>
        <time>2013-05-21T09:00:20Z</time>
      </trkpt>
      <trkpt lat="43.61819" lon="6.48481">
        <ele>640.16</ele>
        <time>2013-05-21T09:00:50Z</time>
      </trkpt>
      <trkpt lat="43.61818" lon="6.48467">
        <ele>641.34</ele>
        <time>2013-05-21T09:01:11Z</time>
      </trkpt>
      <trkpt lat="43.61809" lon="6.48458">
        <ele>642.6</ele>
        <time>2013-05-21T09:01:38Z</time>
      </trkpt>
      <trkpt lat="43.6182" lon="6.48464">
        <ele>648.83</ele>
        <time>2013-05-21T09:02:08Z</time>
      </trkpt>
      <trkpt lat="43.61824" lon="6.48475">
        <ele>652.63</ele>
        <time>2013-05-21T09:02:29Z</time>
      </trkpt>
      <trkpt lat="43.61825" lon="6.48489">
        <ele>654.65</ele>
        <time>2013-05-21T09:03:05Z</time>
      </trkpt>
      <trkpt lat="43.61829" lon="6.48478">
        <ele>654.74</ele>
        <time>2013-05-21T09:03:20Z</time>
      </trkpt>
      <trkpt lat="43.61824" lon="6.48464">
        <ele>654.73</ele>
        <time>2013-05-21T09:03:29Z</time>
      </trkpt>
      <trkpt lat="43.61824" lon="6.48451">
        <ele>654.78</ele>
        <time>2013-05-21T09:03:38Z</time>
      </trkpt>
      <trkpt lat="43.61828" lon="6.48439">
        <ele>654.7</ele>
        <time>2013-05-21T09:03:59Z</time>
      </trkpt>
      <trkpt lat="43.61832" lon="6.48428">
        <ele>655.11</ele>
        <time>2013-05-21T09:04:20Z</time>
      </trkpt>
      <trkpt lat="43.61841" lon="6.48426">
        <ele>655.87</ele>
        <time>2013-05-21T09:04:44Z</time>
      </trkpt>
      <trkpt lat="43.61836" lon="6.48439">
        <ele>657.24</ele>
        <time>2013-05-21T09:05:11Z</time>
      </trkpt>
      <trkpt lat="43.61845" lon="6.48448">
        <ele>659.22</ele>
        <time>2013-05-21T09:05:26Z</time>
      </trkpt>
      <trkpt lat="43.61844" lon="6.4846">
        <ele>661.47</ele>
        <time>2013-05-21T09:06:14Z</time>
      </trkpt>
      <trkpt lat="43.61841" lon="6.48448">
        <ele>662.6</ele>
        <time>2013-05-21T09:06:46Z</time>
      </trkpt>
      <trkpt lat="43.6185" lon="6.48447">
        <ele>664.41</ele>
        <time>2013-05-21T09:08:04Z</time>
      </trkpt>
      <trkpt lat="43.61853" lon="6.48461">
        <ele>665.44</ele>
        <time>2013-05-21T09:09:49Z</time>
      </trkpt>
      <trkpt lat="43.6186" lon="6.48471">
        <ele>665.49</ele>
        <time>2013-05-21T09:10:04Z</time>
      </trkpt>
      <trkpt lat="43.6186" lon="6.48458">
        <ele>665.65</ele>
        <time>2013-05-21T09:10:31Z</time>
      </trkpt>
      <trkpt lat="43.61863" lon="6.48444">
        <ele>666.79</ele>
        <time>2013-05-21T09:10:55Z</time>
      </trkpt>
      <trkpt lat="43.6187" lon="6.48435">
        <ele>670.77</ele>
        <time>2013-05-21T09:12:01Z</time>
      </trkpt>
      <trkpt lat="43.61875" lon="6.48447">
        <ele>670.08</ele>
        <time>2013-05-21T09:13:40Z</time>
      </trkpt>
      <trkpt lat="43.6188" lon="6.48433">
        <ele>672.39</ele>
        <time>2013-05-21T09:13:58Z</time>
      </trkpt>
      <trkpt lat="43.61873" lon="6.48424">
        <ele>675.65</ele>
        <time>2013-05-21T09:14:17Z</time>
      </trkpt>
      <trkpt lat="43.61877" lon="6.48438">
        <ele>681.5</ele>
        <time>2013-05-21T09:14:32Z</time>
      </trkpt>
      <trkpt lat="43.61881" lon="6.4845">
        <ele>683.6</ele>
        <time>2013-05-21T09:14:41Z</time>
      </trkpt>
      <trkpt lat="43.61879" lon="6.48464">
        <ele>681.34</ele>
        <time>2013-05-21T09:15:41Z</time>
      </trkpt>
      <trkpt lat="43.61869" lon="6.4846">
        <ele>675.9</ele>
        <time>2013-05-21T09:17:35Z</time>
      </trkpt>
      <trkpt lat="43.61867" lon="6.48457">
        <ele>681.41</ele>
        <time>2013-05-21T09:21:51Z</time>
      </trkpt>
      <trkpt lat="43.61875" lon="6.48464">
        <ele>678.38</ele>
        <time>2013-05-21T09:27:45Z</time>
      </trkpt>
      <trkpt lat="43.61869" lon="6.48454">
        <ele>675.18</ele>
        <time>2013-05-21T09:38:08Z</time>
      </trkpt>
      <trkpt lat="43.61865" lon="6.48443">
        <ele>675.35</ele>
        <time>2013-05-21T09:39:33Z</time>
      </trkpt>
      <trkpt lat="43.61872" lon="6.48451">
        <ele>674.85</ele>
        <time>2013-05-21T09:42:09Z</time>
      </trkpt>
      <trkpt lat="43.61878" lon="6.48464">
        <ele>679.08</ele>
        <time>2013-05-21T10:12:28Z</time>
      </trkpt>
      <trkpt lat="43.61873" lon="6.48476">
        <ele>678.15</ele>
        <time>2013-05-21T10:27:00Z</time>
      </trkpt>
      <trkpt lat="43.61882" lon="6.48472">
        <ele>677.7</ele>
        <time>2013-05-21T10:33:57Z</time>
      </trkpt>
      <trkpt lat="43.61894" lon="6.48495">
        <ele>672.94</ele>
        <time>2013-05-21T10:35:51Z</time>
      </trkpt>
      <trkpt lat="43.61887" lon="6.48486">
        <ele>673.99</ele>
        <time>2013-05-21T10:36:15Z</time>
      </trkpt>
      <trkpt lat="43.61897" lon="6.48486">
        <ele>674.31</ele>
        <time>2013-05-21T10:36:36Z</time>
      </trkpt>
      <trkpt lat="43.61908" lon="6.48486">
        <ele>674.83</ele>
        <time>2013-05-21T10:37:39Z</time>
      </trkpt>
      <trkpt lat="43.61913" lon="6.48475">
        <ele>675.98</ele>
        <time>2013-05-21T10:38:15Z</time>
      </trkpt>
      <trkpt lat="43.61904" lon="6.48469">
        <ele>677.29</ele>
        <time>2013-05-21T10:39:06Z</time>
      </trkpt>
      <trkpt lat="43.61897" lon="6.48462">
        <ele>677.26</ele>
        <time>2013-05-21T10:39:27Z</time>
      </trkpt>
      <trkpt lat="43.61889" lon="6.48451">
        <ele>676.37</ele>
        <time>2013-05-21T10:40:06Z</time>
      </trkpt>
      <trkpt lat="43.61879" lon="6.48445">
        <ele>676.18</ele>
        <time>2013-05-21T10:40:24Z</time>
      </trkpt>
      <trkpt lat="43.6187" lon="6.48439">
        <ele>675.23</ele>
        <time>2013-05-21T10:40:39Z</time>
      </trkpt>
      <trkpt lat="43.61866" lon="6.48452">
        <ele>674.4</ele>
        <time>2013-05-21T10:40:48Z</time>
      </trkpt>
      <trkpt lat="43.61873" lon="6.4846">
        <ele>673.4</ele>
        <time>2013-05-21T10:41:33Z</time>
      </trkpt>
      <trkpt lat="43.61877" lon="6.4847">
        <ele>676.11</ele>
        <time>2013-05-21T10:44:56Z</time>
      </trkpt>
      <trkpt lat="43.61868" lon="6.48466">
        <ele>676.39</ele>
        <time>2013-05-21T10:53:35Z</time>
      </trkpt>
      <trkpt lat="43.61863" lon="6.48454">
        <ele>676.1</ele>
        <time>2013-05-21T10:53:50Z</time>
      </trkpt>
      <trkpt lat="43.61867" lon="6.48442">
        <ele>675.37</ele>
        <time>2013-05-21T10:54:05Z</time>
      </trkpt>
      <trkpt lat="43.61859" lon="6.4845">
        <ele>673.61</ele>
        <time>2013-05-21T10:54:32Z</time>
      </trkpt>
      <trkpt lat="43.61858" lon="6.48464">
        <ele>672.36</ele>
        <time>2013-05-21T10:54:47Z</time>
      </trkpt>
      <trkpt lat="43.6185" lon="6.48456">
        <ele>667.8</ele>
        <time>2013-05-21T10:55:38Z</time>
      </trkpt>
      <trkpt lat="43.61843" lon="6.48447">
        <ele>663.85</ele>
        <time>2013-05-21T10:56:29Z</time>
      </trkpt>
      <trkpt lat="43.61839" lon="6.48435">
        <ele>663.2</ele>
        <time>2013-05-21T10:56:50Z</time>
      </trkpt>
      <trkpt lat="43.61837" lon="6.48422">
        <ele>663.22</ele>
        <time>2013-05-21T10:57:23Z</time>
      </trkpt>
      <trkpt lat="43.61826" lon="6.48426">
        <ele>661.62</ele>
        <time>2013-05-21T10:57:50Z</time>
      </trkpt>
      <trkpt lat="43.61824" lon="6.48438">
        <ele>660.77</ele>
        <time>2013-05-21T10:58:11Z</time>
      </trkpt>
      <trkpt lat="43.61825" lon="6.48453">
        <ele>657.53</ele>
        <time>2013-05-21T10:58:35Z</time>
      </trkpt>
      <trkpt lat="43.61825" lon="6.48466">
        <ele>655.68</ele>
        <time>2013-05-21T10:58:44Z</time>
      </trkpt>
      <trkpt lat="43.61824" lon="6.48479">
        <ele>652.77</ele>
        <time>2013-05-21T10:59:47Z</time>
      </trkpt>
      <trkpt lat="43.61816" lon="6.48471">
        <ele>652.05</ele>
        <time>2013-05-21T11:00:11Z</time>
      </trkpt>
      <trkpt lat="43.61813" lon="6.48459">
        <ele>651.86</ele>
        <time>2013-05-21T11:00:23Z</time>
      </trkpt>
      <trkpt lat="43.61817" lon="6.48447">
        <ele>651.57</ele>
        <time>2013-05-21T11:00:32Z</time>
      </trkpt>
      <trkpt lat="43.61817" lon="6.48433">
        <ele>649.04</ele>
        <time>2013-05-21T11:00:53Z</time>
      </trkpt>
      <trkpt lat="43.6181" lon="6.48423">
        <ele>644.12</ele>
        <time>2013-05-21T11:01:17Z</time>
      </trkpt>
      <trkpt lat="43.618" lon="6.48419">
        <ele>641.09</ele>
        <time>2013-05-21T11:01:38Z</time>
      </trkpt>
      <trkpt lat="43.61798" lon="6.48406">
        <ele>638.42</ele>
        <time>2013-05-21T11:02:05Z</time>
      </trkpt>
      <trkpt lat="43.61796" lon="6.48391">
        <ele>636.22</ele>
        <time>2013-05-21T11:02:26Z</time>
      </trkpt>
      <trkpt lat="43.61787" lon="6.48391">
        <ele>631.04</ele>
        <time>2013-05-21T11:03:02Z</time>
      </trkpt>
      <trkpt lat="43.61785" lon="6.48378">
        <ele>629.96</ele>
        <time>2013-05-21T11:03:17Z</time>
      </trkpt>
      <trkpt lat="43.61774" lon="6.4838">
        <ele>630.48</ele>
        <time>2013-05-21T11:03:35Z</time>
      </trkpt>
      <trkpt lat="43.61765" lon="6.48388">
        <ele>628.93</ele>
        <time>2013-05-21T11:03:56Z</time>
      </trkpt>
      <trkpt lat="43.61755" lon="6.48391">
        <ele>625.55</ele>
        <time>2013-05-21T11:04:25Z</time>
      </trkpt>
      <trkpt lat="43.61747" lon="6.48383">
        <ele>622.94</ele>
        <time>2013-05-21T11:04:46Z</time>
      </trkpt>
      <trkpt lat="43.61741" lon="6.48373">
        <ele>620.58</ele>
        <time>2013-05-21T11:05:04Z</time>
      </trkpt>
      <trkpt lat="43.6174" lon="6.48359">
        <ele>619.62</ele>
        <time>2013-05-21T11:05:19Z</time>
      </trkpt>
      <trkpt lat="43.61744" lon="6.48347">
        <ele>618.61</ele>
        <time>2013-05-21T11:05:40Z</time>
      </trkpt>
      <trkpt lat="43.61741" lon="6.48333">
        <ele>616.97</ele>
        <time>2013-05-21T11:05:58Z</time>
      </trkpt>
      <trkpt lat="43.61747" lon="6.48322">
        <ele>616.25</ele>
        <time>2013-05-21T11:06:10Z</time>
      </trkpt>
      <trkpt lat="43.61746" lon="6.48309">
        <ele>615.23</ele>
        <time>2013-05-21T11:06:25Z</time>
      </trkpt>
      <trkpt lat="43.61754" lon="6.48298">
        <ele>614.21</ele>
        <time>2013-05-21T11:06:40Z</time>
      </trkpt>
      <trkpt lat="43.61758" lon="6.48286">
        <ele>613.59</ele>
        <time>2013-05-21T11:06:58Z</time>
      </trkpt>
      <trkpt lat="43.61769" lon="6.4828">
        <ele>613.23</ele>
        <time>2013-05-21T11:07:07Z</time>
      </trkpt>
      <trkpt lat="43.61778" lon="6.48274">
        <ele>612.44</ele>
        <time>2013-05-21T11:07:22Z</time>
      </trkpt>
      <trkpt lat="43.61787" lon="6.4827">
        <ele>611.51</ele>
        <time>2013-05-21T11:07:37Z</time>
      </trkpt>
      <trkpt lat="43.61796" lon="6.48272">
        <ele>610.39</ele>
        <time>2013-05-21T11:07:49Z</time>
      </trkpt>
      <trkpt lat="43.61807" lon="6.48274">
        <ele>608.82</ele>
        <time>2013-05-21T11:08:10Z</time>
      </trkpt>
      <trkpt lat="43.61816" lon="6.48273">
        <ele>607.86</ele>
        <time>2013-05-21T11:08:16Z</time>
      </trkpt>
      <trkpt lat="43.61826" lon="6.48271">
        <ele>603.81</ele>
        <time>2013-05-21T11:08:34Z</time>
      </trkpt>
      <trkpt lat="43.61837" lon="6.48272">
        <ele>600.24</ele>
        <time>2013-05-21T11:08:49Z</time>
      </trkpt>
      <trkpt lat="43.61847" lon="6.48273">
        <ele>596.15</ele>
        <time>2013-05-21T11:09:07Z</time>
      </trkpt>
      <trkpt lat="43.61857" lon="6.48275">
        <ele>593.19</ele>
        <time>2013-05-21T11:09:19Z</time>
      </trkpt>
      <trkpt lat="43.61867" lon="6.48277">
        <ele>590.67</ele>
        <time>2013-05-21T11:09:31Z</time>
      </trkpt>
      <trkpt lat="43.61877" lon="6.48277">
        <ele>587.67</ele>
        <time>2013-05-21T11:09:46Z</time>
      </trkpt>
      <trkpt lat="43.61886" lon="6.48284">
        <ele>585.21</ele>
        <time>2013-05-21T11:09:58Z</time>
      </trkpt>
      <trkpt lat="43.61896" lon="6.4828">
        <ele>583.37</ele>
        <time>2013-05-21T11:10:07Z</time>
      </trkpt>
      <trkpt lat="43.61905" lon="6.48276">
        <ele>581.63</ele>
        <time>2013-05-21T11:10:19Z</time>
      </trkpt>
      <trkpt lat="43.61914" lon="6.48273">
        <ele>580.11</ele>
        <time>2013-05-21T11:10:34Z</time>
      </trkpt>
      <trkpt lat="43.61951" lon="6.4828">
        <ele>570.04</ele>
        <time>2013-05-21T11:11:52Z</time>
      </trkpt>
      <trkpt lat="43.61962" lon="6.48276">
        <ele>565.4</ele>
        <time>2013-05-21T11:12:49Z</time>
      </trkpt>
      <trkpt lat="43.61957" lon="6.48265">
        <ele>564.19</ele>
        <time>2013-05-21T11:13:04Z</time>
      </trkpt>
      <trkpt lat="43.6195" lon="6.48254">
        <ele>562.92</ele>
        <time>2013-05-21T11:13:19Z</time>
      </trkpt>
      <trkpt lat="43.61942" lon="6.48244">
        <ele>561.82</ele>
        <time>2013-05-21T11:13:31Z</time>
      </trkpt>
      <trkpt lat="43.61932" lon="6.48242">
        <ele>559.1</ele>
        <time>2013-05-21T11:14:25Z</time>
      </trkpt>
      <trkpt lat="43.61924" lon="6.48235">
        <ele>558.53</ele>
        <time>2013-05-21T11:14:34Z</time>
      </trkpt>
      <trkpt lat="43.61915" lon="6.48228">
        <ele>557.16</ele>
        <time>2013-05-21T11:14:52Z</time>
      </trkpt>
      <trkpt lat="43.61907" lon="6.48217">
        <ele>556.72</ele>
        <time>2013-05-21T11:15:04Z</time>
      </trkpt>
      <trkpt lat="43.619" lon="6.48204">
        <ele>556.89</ele>
        <time>2013-05-21T11:15:13Z</time>
      </trkpt>
      <trkpt lat="43.61894" lon="6.48192">
        <ele>556.41</ele>
        <time>2013-05-21T11:15:25Z</time>
      </trkpt>
      <trkpt lat="43.61888" lon="6.48181">
        <ele>555.65</ele>
        <time>2013-05-21T11:15:34Z</time>
      </trkpt>
      <trkpt lat="43.61874" lon="6.48171">
        <ele>554.82</ele>
        <time>2013-05-21T11:16:19Z</time>
      </trkpt>
      <trkpt lat="43.61868" lon="6.48161">
        <ele>554.68</ele>
        <time>2013-05-21T11:16:31Z</time>
      </trkpt>
      <trkpt lat="43.61862" lon="6.48149">
        <ele>554.59</ele>
        <time>2013-05-21T11:16:43Z</time>
      </trkpt>
      <trkpt lat="43.61852" lon="6.4814">
        <ele>554.05</ele>
        <time>2013-05-21T11:16:52Z</time>
      </trkpt>
      <trkpt lat="43.61842" lon="6.48133">
        <ele>552.45</ele>
        <time>2013-05-21T11:17:01Z</time>
      </trkpt>
      <trkpt lat="43.61831" lon="6.48127">
        <ele>550.52</ele>
        <time>2013-05-21T11:17:10Z</time>
      </trkpt>
      <trkpt lat="43.61819" lon="6.48122">
        <ele>548.3</ele>
        <time>2013-05-21T11:17:19Z</time>
      </trkpt>
      <trkpt lat="43.6181" lon="6.48119">
        <ele>546.36</ele>
        <time>2013-05-21T11:17:28Z</time>
      </trkpt>
      <trkpt lat="43.61799" lon="6.4811">
        <ele>544.51</ele>
        <time>2013-05-21T11:17:37Z</time>
      </trkpt>
      <trkpt lat="43.61789" lon="6.48095">
        <ele>543.37</ele>
        <time>2013-05-21T11:17:43Z</time>
      </trkpt>
      <trkpt lat="43.61786" lon="6.48083">
        <ele>542.97</ele>
        <time>2013-05-21T11:17:46Z</time>
      </trkpt>
      <trkpt lat="43.61777" lon="6.48096">
        <ele>541.98</ele>
        <time>2013-05-21T11:18:01Z</time>
      </trkpt>
      <trkpt lat="43.61767" lon="6.48097">
        <ele>541.45</ele>
        <time>2013-05-21T11:18:10Z</time>
      </trkpt>
      <trkpt lat="43.61757" lon="6.48097">
        <ele>541.46</ele>
        <time>2013-05-21T11:18:19Z</time>
      </trkpt>
      <trkpt lat="43.61747" lon="6.48097">
        <ele>542.37</ele>
        <time>2013-05-21T11:18:31Z</time>
      </trkpt>
      <trkpt lat="43.61736" lon="6.48098">
        <ele>542.23</ele>
        <time>2013-05-21T11:18:46Z</time>
      </trkpt>
      <trkpt lat="43.61726" lon="6.48099">
        <ele>541.96</ele>
        <time>2013-05-21T11:18:58Z</time>
      </trkpt>
      <trkpt lat="43.61716" lon="6.48099">
        <ele>538.79</ele>
        <time>2013-05-21T11:19:31Z</time>
      </trkpt>
      <trkpt lat="43.61707" lon="6.48094">
        <ele>535.98</ele>
        <time>2013-05-21T11:19:58Z</time>
      </trkpt>
      <trkpt lat="43.61699" lon="6.48085">
        <ele>533.24</ele>
        <time>2013-05-21T11:20:13Z</time>
      </trkpt>
      <trkpt lat="43.61691" lon="6.48078">
        <ele>531.24</ele>
        <time>2013-05-21T11:20:28Z</time>
      </trkpt>
      <trkpt lat="43.6168" lon="6.48075">
        <ele>528.53</ele>
        <time>2013-05-21T11:20:46Z</time>
      </trkpt>
      <trkpt lat="43.61671" lon="6.48073">
        <ele>527.21</ele>
        <time>2013-05-21T11:20:58Z</time>
      </trkpt>
      <trkpt lat="43.61661" lon="6.48076">
        <ele>524</ele>
        <time>2013-05-21T11:22:13Z</time>
      </trkpt>
      <trkpt lat="43.61651" lon="6.4807">
        <ele>520.09</ele>
        <time>2013-05-21T11:24:19Z</time>
      </trkpt>
      <trkpt lat="43.61642" lon="6.48072">
        <ele>519.74</ele>
        <time>2013-05-21T11:24:28Z</time>
      </trkpt>
      <trkpt lat="43.61632" lon="6.48072">
        <ele>519.51</ele>
        <time>2013-05-21T11:24:43Z</time>
      </trkpt>
      <trkpt lat="43.61622" lon="6.48078">
        <ele>518.51</ele>
        <time>2013-05-21T11:25:07Z</time>
      </trkpt>
      <trkpt lat="43.61612" lon="6.48083">
        <ele>517.68</ele>
        <time>2013-05-21T11:25:16Z</time>
      </trkpt>
      <trkpt lat="43.61601" lon="6.48085">
        <ele>516.08</ele>
        <time>2013-05-21T11:25:37Z</time>
      </trkpt>
      <trkpt lat="43.61591" lon="6.48085">
        <ele>515.32</ele>
        <time>2013-05-21T11:25:52Z</time>
      </trkpt>
      <trkpt lat="43.61582" lon="6.48089">
        <ele>515.5</ele>
        <time>2013-05-21T11:26:07Z</time>
      </trkpt>
      <trkpt lat="43.61573" lon="6.48092">
        <ele>516.08</ele>
        <time>2013-05-21T11:26:19Z</time>
      </trkpt>
      <trkpt lat="43.61563" lon="6.48095">
        <ele>516.71</ele>
        <time>2013-05-21T11:26:49Z</time>
      </trkpt>
      <trkpt lat="43.61554" lon="6.481">
        <ele>516.93</ele>
        <time>2013-05-21T11:27:19Z</time>
      </trkpt>
      <trkpt lat="43.61545" lon="6.48107">
        <ele>516.58</ele>
        <time>2013-05-21T11:27:34Z</time>
      </trkpt>
      <trkpt lat="43.61536" lon="6.48115">
        <ele>516.43</ele>
        <time>2013-05-21T11:27:46Z</time>
      </trkpt>
      <trkpt lat="43.61527" lon="6.48123">
        <ele>516.34</ele>
        <time>2013-05-21T11:28:01Z</time>
      </trkpt>
      <trkpt lat="43.61518" lon="6.48116">
        <ele>515.91</ele>
        <time>2013-05-21T11:28:13Z</time>
      </trkpt>
      <trkpt lat="43.61507" lon="6.48115">
        <ele>517.63</ele>
        <time>2013-05-21T11:29:46Z</time>
      </trkpt>
      <trkpt lat="43.61497" lon="6.48115">
        <ele>517.37</ele>
        <time>2013-05-21T11:29:58Z</time>
      </trkpt>
      <trkpt lat="43.61492" lon="6.48127">
        <ele>518.12</ele>
        <time>2013-05-21T11:30:40Z</time>
      </trkpt>
      <trkpt lat="43.61482" lon="6.48126">
        <ele>515.28</ele>
        <time>2013-05-21T11:31:04Z</time>
      </trkpt>
      <trkpt lat="43.61472" lon="6.48125">
        <ele>513.47</ele>
        <time>2013-05-21T11:31:13Z</time>
      </trkpt>
      <trkpt lat="43.61462" lon="6.48126">
        <ele>509.66</ele>
        <time>2013-05-21T11:31:43Z</time>
      </trkpt>
      <trkpt lat="43.61453" lon="6.48121">
        <ele>507.38</ele>
        <time>2013-05-21T11:31:55Z</time>
      </trkpt>
      <trkpt lat="43.61444" lon="6.48126">
        <ele>503.74</ele>
        <time>2013-05-21T11:32:16Z</time>
      </trkpt>
      <trkpt lat="43.61435" lon="6.4813">
        <ele>501.4</ele>
        <time>2013-05-21T11:32:34Z</time>
      </trkpt>
      <trkpt lat="43.61428" lon="6.48143">
        <ele>499.79</ele>
        <time>2013-05-21T11:33:04Z</time>
      </trkpt>
      <trkpt lat="43.61425" lon="6.48162">
        <ele>500.32</ele>
        <time>2013-05-21T11:33:10Z</time>
      </trkpt>
      <trkpt lat="43.6142" lon="6.48183">
        <ele>500.98</ele>
        <time>2013-05-21T11:33:16Z</time>
      </trkpt>
      <trkpt lat="43.61409" lon="6.48182">
        <ele>501.73</ele>
        <time>2013-05-21T11:33:22Z</time>
      </trkpt>
      <trkpt lat="43.61399" lon="6.48168">
        <ele>502.66</ele>
        <time>2013-05-21T11:33:28Z</time>
      </trkpt>
      <trkpt lat="43.61397" lon="6.4815">
        <ele>504.64</ele>
        <time>2013-05-21T11:33:37Z</time>
      </trkpt>
      <trkpt lat="43.61396" lon="6.48137">
        <ele>505.95</ele>
        <time>2013-05-21T11:33:43Z</time>
      </trkpt>
      <trkpt lat="43.6139" lon="6.48127">
        <ele>505.68</ele>
        <time>2013-05-21T11:34:19Z</time>
      </trkpt>
      <trkpt lat="43.61379" lon="6.48127">
        <ele>503.72</ele>
        <time>2013-05-21T11:34:37Z</time>
      </trkpt>
      <trkpt lat="43.6137" lon="6.48129">
        <ele>500.73</ele>
        <time>2013-05-21T11:34:55Z</time>
      </trkpt>
      <trkpt lat="43.61362" lon="6.48122">
        <ele>498.17</ele>
        <time>2013-05-21T11:35:22Z</time>
      </trkpt>
      <trkpt lat="43.61353" lon="6.48129">
        <ele>498.47</ele>
        <time>2013-05-21T11:35:34Z</time>
      </trkpt>
      <trkpt lat="43.61342" lon="6.48134">
        <ele>498.96</ele>
        <time>2013-05-21T11:35:43Z</time>
      </trkpt>
      <trkpt lat="43.61333" lon="6.48139">
        <ele>495.04</ele>
        <time>2013-05-21T11:36:34Z</time>
      </trkpt>
      <trkpt lat="43.61322" lon="6.48139">
        <ele>493.9</ele>
        <time>2013-05-21T11:36:46Z</time>
      </trkpt>
      <trkpt lat="43.61312" lon="6.48143">
        <ele>492.51</ele>
        <time>2013-05-21T11:37:01Z</time>
      </trkpt>
      <trkpt lat="43.61303" lon="6.4815">
        <ele>490.8</ele>
        <time>2013-05-21T11:37:19Z</time>
      </trkpt>
      <trkpt lat="43.61313" lon="6.48149">
        <ele>489.02</ele>
        <time>2013-05-21T11:39:13Z</time>
      </trkpt>
      <trkpt lat="43.61304" lon="6.48155">
        <ele>485.94</ele>
        <time>2013-05-21T11:46:43Z</time>
      </trkpt>
      <trkpt lat="43.61304" lon="6.48147">
        <ele>487.13</ele>
        <time>2013-05-21T11:48:54Z</time>
      </trkpt>
      <trkpt lat="43.61303" lon="6.48151">
        <ele>488.2</ele>
        <time>2013-05-21T11:56:09Z</time>
      </trkpt>
      <trkpt lat="43.61307" lon="6.48164">
        <ele>488.4</ele>
        <time>2013-05-21T11:57:01Z</time>
      </trkpt>
      <trkpt lat="43.61307" lon="6.48151">
        <ele>489.07</ele>
        <time>2013-05-21T11:58:01Z</time>
      </trkpt>
      <trkpt lat="43.61308" lon="6.48138">
        <ele>489.65</ele>
        <time>2013-05-21T12:14:39Z</time>
      </trkpt>
      <trkpt lat="43.61296" lon="6.4813">
        <ele>493.63</ele>
        <time>2013-05-21T12:16:54Z</time>
      </trkpt>
      <trkpt lat="43.61286" lon="6.48129">
        <ele>493</ele>
        <time>2013-05-21T12:17:00Z</time>
      </trkpt>
      <trkpt lat="43.61276" lon="6.48126">
        <ele>491.2</ele>
        <time>2013-05-21T12:17:12Z</time>
      </trkpt>
      <trkpt lat="43.61264" lon="6.48122">
        <ele>489.21</ele>
        <time>2013-05-21T12:17:36Z</time>
      </trkpt>
      <trkpt lat="43.61256" lon="6.48114">
        <ele>488.43</ele>
        <time>2013-05-21T12:17:42Z</time>
      </trkpt>
      <trkpt lat="43.6125" lon="6.48103">
        <ele>486.93</ele>
        <time>2013-05-21T12:17:51Z</time>
      </trkpt>
      <trkpt lat="43.6125" lon="6.48088">
        <ele>485.3</ele>
        <time>2013-05-21T12:18:03Z</time>
      </trkpt>
      <trkpt lat="43.61244" lon="6.48076">
        <ele>484.28</ele>
        <time>2013-05-21T12:18:12Z</time>
      </trkpt>
      <trkpt lat="43.61242" lon="6.48061">
        <ele>482.81</ele>
        <time>2013-05-21T12:18:21Z</time>
      </trkpt>
      <trkpt lat="43.61241" lon="6.48049">
        <ele>481.25</ele>
        <time>2013-05-21T12:18:30Z</time>
      </trkpt>
      <trkpt lat="43.61239" lon="6.48035">
        <ele>479.65</ele>
        <time>2013-05-21T12:18:42Z</time>
      </trkpt>
      <trkpt lat="43.61228" lon="6.48046">
        <ele>477.97</ele>
        <time>2013-05-21T12:19:26Z</time>
      </trkpt>
      <trkpt lat="43.61236" lon="6.48059">
        <ele>475.21</ele>
        <time>2013-05-21T12:20:08Z</time>
      </trkpt>
      <trkpt lat="43.6124" lon="6.48069">
        <ele>474.59</ele>
        <time>2013-05-21T12:20:20Z</time>
      </trkpt>
      <trkpt lat="43.61235" lon="6.48059">
        <ele>475.75</ele>
        <time>2013-05-21T12:21:50Z</time>
      </trkpt>
      <trkpt lat="43.61241" lon="6.48073">
        <ele>475.93</ele>
        <time>2013-05-21T12:22:08Z</time>
      </trkpt>
      <trkpt lat="43.61244" lon="6.48085">
        <ele>476.43</ele>
        <time>2013-05-21T12:22:20Z</time>
      </trkpt>
      <trkpt lat="43.61233" lon="6.48092">
        <ele>476.79</ele>
        <time>2013-05-21T12:22:32Z</time>
      </trkpt>
      <trkpt lat="43.61227" lon="6.48101">
        <ele>476.07</ele>
        <time>2013-05-21T12:22:41Z</time>
      </trkpt>
      <trkpt lat="43.61222" lon="6.48113">
        <ele>474.39</ele>
        <time>2013-05-21T12:23:05Z</time>
      </trkpt>
      <trkpt lat="43.61212" lon="6.4812">
        <ele>475.98</ele>
        <time>2013-05-21T12:23:38Z</time>
      </trkpt>
      <trkpt lat="43.61202" lon="6.48125">
        <ele>477.17</ele>
        <time>2013-05-21T12:24:08Z</time>
      </trkpt>
      <trkpt lat="43.61191" lon="6.4813">
        <ele>478.9</ele>
        <time>2013-05-21T12:24:26Z</time>
      </trkpt>
      <trkpt lat="43.61184" lon="6.48141">
        <ele>479.49</ele>
        <time>2013-05-21T12:24:35Z</time>
      </trkpt>
      <trkpt lat="43.61186" lon="6.48155">
        <ele>479.66</ele>
        <time>2013-05-21T12:24:53Z</time>
      </trkpt>
      <trkpt lat="43.61187" lon="6.48168">
        <ele>478.64</ele>
        <time>2013-05-21T12:25:17Z</time>
      </trkpt>
      <trkpt lat="43.61177" lon="6.48175">
        <ele>476.93</ele>
        <time>2013-05-21T12:25:56Z</time>
      </trkpt>
      <trkpt lat="43.61168" lon="6.4818">
        <ele>477.27</ele>
        <time>2013-05-21T12:26:53Z</time>
      </trkpt>
      <trkpt lat="43.6116" lon="6.48185">
        <ele>477.13</ele>
        <time>2013-05-21T12:27:52Z</time>
      </trkpt>
      <trkpt lat="43.61153" lon="6.48197">
        <ele>477.34</ele>
        <time>2013-05-21T12:28:07Z</time>
      </trkpt>
      <trkpt lat="43.61099" lon="6.48204">
        <ele>471.29</ele>
        <time>2013-05-21T12:29:16Z</time>
      </trkpt>
      <trkpt lat="43.61089" lon="6.48203">
        <ele>471.45</ele>
        <time>2013-05-21T12:29:25Z</time>
      </trkpt>
      <trkpt lat="43.61077" lon="6.48211">
        <ele>471.62</ele>
        <time>2013-05-21T12:29:37Z</time>
      </trkpt>
      <trkpt lat="43.61067" lon="6.48221">
        <ele>470.63</ele>
        <time>2013-05-21T12:29:46Z</time>
      </trkpt>
      <trkpt lat="43.61062" lon="6.48233">
        <ele>469.23</ele>
        <time>2013-05-21T12:30:01Z</time>
      </trkpt>
    </trkseg>
  </trk>
</gpx>